sensor_id;sensor_type;location;lat;lon;timestamp;pressure;altitude;pressure_sealevel;temperature;humidity
56568;BME280;42456;49.956;20.004;2024-01-15T00:01:00;96588.89;;;0.50;74.99
56568;BME280;42456;49.956;20.004;2024-01-15T00:03:27;96585.50;;;0.51;74.97
56568;BME280;42456;49.956;20.004;2024-01-15T00:05:54;96581.67;;;0.49;74.93
56568;BME280;42456;49.956;20.004;2024-01-15T00:08:21;96573.55;;;0.49;74.77
56568;BME280;42456;49.956;20.004;2024-01-15T00:10:48;96570.41;;;0.47;74.81
56568;BME280;42456;49.956;20.004;2024-01-15T00:13:15;96561.64;;;0.47;74.27
56568;BME280;42456;49.956;20.004;2024-01-15T00:15:43;96553.40;;;0.47;74.60
56568;BME280;42456;49.956;20.004;2024-01-15T00:18:10;96545.83;;;0.47;74.79
56568;BME280;42456;49.956;20.004;2024-01-15T00:20:38;96541.55;;;0.46;74.51
56568;BME280;42456;49.956;20.004;2024-01-15T00:23:04;96546.36;;;0.47;74.47
56568;BME280;42456;49.956;20.004;2024-01-15T00:25:32;96546.45;;;0.47;74.46
56568;BME280;42456;49.956;20.004;2024-01-15T00:27:58;96539.58;;;0.48;74.19
56568;BME280;42456;49.956;20.004;2024-01-15T00:30:25;96533.02;;;0.48;74.17
56568;BME280;42456;49.956;20.004;2024-01-15T00:32:53;96526.50;;;0.47;73.83
56568;BME280;42456;49.956;20.004;2024-01-15T00:35:20;96523.17;;;0.47;74.07
56568;BME280;42456;49.956;20.004;2024-01-15T00:37:47;96522.12;;;0.48;73.86
56568;BME280;42456;49.956;20.004;2024-01-15T00:40:14;96522.90;;;0.48;73.96
56568;BME280;42456;49.956;20.004;2024-01-15T00:42:41;96517.83;;;0.48;73.98
56568;BME280;42456;49.956;20.004;2024-01-15T00:45:08;96522.52;;;0.48;73.34
56568;BME280;42456;49.956;20.004;2024-01-15T00:47:36;96512.30;;;0.49;73.58
56568;BME280;42456;49.956;20.004;2024-01-15T00:50:03;96507.16;;;0.49;73.48
56568;BME280;42456;49.956;20.004;2024-01-15T00:52:30;96501.96;;;0.50;73.55
56568;BME280;42456;49.956;20.004;2024-01-15T00:54:57;96498.36;;;0.50;73.24
56568;BME280;42456;49.956;20.004;2024-01-15T00:57:24;96499.29;;;0.50;73.00
56568;BME280;42456;49.956;20.004;2024-01-15T00:59:51;96496.69;;;0.51;73.41
56568;BME280;42456;49.956;20.004;2024-01-15T01:02:17;96499.92;;;0.52;72.99
56568;BME280;42456;49.956;20.004;2024-01-15T01:04:44;96496.84;;;0.53;72.95
56568;BME280;42456;49.956;20.004;2024-01-15T01:07:11;96492.52;;;0.54;72.68
56568;BME280;42456;49.956;20.004;2024-01-15T01:09:38;96488.54;;;0.55;72.50
56568;BME280;42456;49.956;20.004;2024-01-15T01:12:06;96491.66;;;0.55;72.67
56568;BME280;42456;49.956;20.004;2024-01-15T01:14:32;96493.11;;;0.56;72.59
56568;BME280;42456;49.956;20.004;2024-01-15T01:16:59;96494.11;;;0.56;72.76
56568;BME280;42456;49.956;20.004;2024-01-15T01:19:26;96487.08;;;0.56;72.05
56568;BME280;42456;49.956;20.004;2024-01-15T01:21:53;96491.68;;;0.56;72.14
56568;BME280;42456;49.956;20.004;2024-01-15T01:24:20;96490.29;;;0.57;72.03
56568;BME280;42456;49.956;20.004;2024-01-15T01:26:47;96492.98;;;0.56;72.31
56568;BME280;42456;49.956;20.004;2024-01-15T01:29:14;96487.95;;;0.57;72.55
56568;BME280;42456;49.956;20.004;2024-01-15T01:31:44;96482.69;;;0.57;71.88
56568;BME280;42456;49.956;20.004;2024-01-15T01:34:16;96480.44;;;0.57;72.38
56568;BME280;42456;49.956;20.004;2024-01-15T01:36:43;96477.45;;;0.57;72.27
56568;BME280;42456;49.956;20.004;2024-01-15T01:39:10;96474.91;;;0.58;71.73
56568;BME280;42456;49.956;20.004;2024-01-15T01:41:38;96475.59;;;0.57;72.08
56568;BME280;42456;49.956;20.004;2024-01-15T01:44:06;96471.49;;;0.57;71.88
56568;BME280;42456;49.956;20.004;2024-01-15T01:46:35;96458.17;;;0.57;72.03
56568;BME280;42456;49.956;20.004;2024-01-15T01:49:08;96458.67;;;0.56;72.09
56568;BME280;42456;49.956;20.004;2024-01-15T01:51:37;96448.36;;;0.55;71.97
56568;BME280;42456;49.956;20.004;2024-01-15T01:54:07;96445.79;;;0.55;71.26
56568;BME280;42456;49.956;20.004;2024-01-15T01:56:35;96440.78;;;0.55;71.63
56568;BME280;42456;49.956;20.004;2024-01-15T01:59:03;96438.03;;;0.54;71.81
56568;BME280;42456;49.956;20.004;2024-01-15T02:01:31;96436.80;;;0.53;71.50
56568;BME280;42456;49.956;20.004;2024-01-15T02:03:59;96434.43;;;0.53;71.67
56568;BME280;42456;49.956;20.004;2024-01-15T02:06:27;96428.05;;;0.52;72.06
56568;BME280;42456;49.956;20.004;2024-01-15T02:08:55;96426.20;;;0.52;71.83
56568;BME280;42456;49.956;20.004;2024-01-15T02:11:22;96415.85;;;0.52;71.57
56568;BME280;42456;49.956;20.004;2024-01-15T02:13:49;96411.30;;;0.51;72.19
56568;BME280;42456;49.956;20.004;2024-01-15T02:16:16;96419.39;;;0.51;72.07
56568;BME280;42456;49.956;20.004;2024-01-15T02:18:45;96421.86;;;0.51;71.68
56568;BME280;42456;49.956;20.004;2024-01-15T02:21:13;96417.48;;;0.51;72.27
56568;BME280;42456;49.956;20.004;2024-01-15T02:23:40;96416.71;;;0.51;71.70
56568;BME280;42456;49.956;20.004;2024-01-15T02:26:07;96412.23;;;0.50;71.45
56568;BME280;42456;49.956;20.004;2024-01-15T02:28:34;96412.70;;;0.50;71.70
56568;BME280;42456;49.956;20.004;2024-01-15T02:31:02;96409.27;;;0.50;72.32
56568;BME280;42456;49.956;20.004;2024-01-15T02:33:29;96401.13;;;0.50;72.30
56568;BME280;42456;49.956;20.004;2024-01-15T02:35:56;96390.67;;;0.50;71.95
56568;BME280;42456;49.956;20.004;2024-01-15T02:38:23;96384.45;;;0.49;71.93
56568;BME280;42456;49.956;20.004;2024-01-15T02:40:50;96384.33;;;0.48;71.85
56568;BME280;42456;49.956;20.004;2024-01-15T02:43:18;96376.73;;;0.47;71.55
56568;BME280;42456;49.956;20.004;2024-01-15T02:45:46;96370.05;;;0.46;72.06
56568;BME280;42456;49.956;20.004;2024-01-15T02:48:14;96370.20;;;0.46;71.24
56568;BME280;42456;49.956;20.004;2024-01-15T02:50:41;96363.48;;;0.46;71.90
56568;BME280;42456;49.956;20.004;2024-01-15T02:53:08;96359.16;;;0.46;71.65
56568;BME280;42456;49.956;20.004;2024-01-15T02:55:35;96358.85;;;0.46;71.13
56568;BME280;42456;49.956;20.004;2024-01-15T02:58:02;96355.55;;;0.45;70.91
56568;BME280;42456;49.956;20.004;2024-01-15T03:00:29;96349.73;;;0.43;71.38
56568;BME280;42456;49.956;20.004;2024-01-15T03:02:56;96348.61;;;0.42;71.06
56568;BME280;42456;49.956;20.004;2024-01-15T03:05:23;96345.84;;;0.40;71.13
56568;BME280;42456;49.956;20.004;2024-01-15T03:07:50;96344.66;;;0.39;70.82
56568;BME280;42456;49.956;20.004;2024-01-15T03:10:17;96346.52;;;0.39;70.99
56568;BME280;42456;49.956;20.004;2024-01-15T03:12:44;96347.70;;;0.39;71.38
56568;BME280;42456;49.956;20.004;2024-01-15T03:15:11;96346.11;;;0.38;71.06
56568;BME280;42456;49.956;20.004;2024-01-15T03:17:38;96339.55;;;0.38;70.77
56568;BME280;42456;49.956;20.004;2024-01-15T03:20:05;96341.33;;;0.39;71.17
56568;BME280;42456;49.956;20.004;2024-01-15T03:22:32;96330.92;;;0.38;71.08
56568;BME280;42456;49.956;20.004;2024-01-15T03:24:59;96327.30;;;0.38;71.09
56568;BME280;42456;49.956;20.004;2024-01-15T03:27:26;96327.69;;;0.37;71.16
56568;BME280;42456;49.956;20.004;2024-01-15T03:29:53;96336.23;;;0.37;71.13
56568;BME280;42456;49.956;20.004;2024-01-15T03:32:20;96334.61;;;0.36;70.57
56568;BME280;42456;49.956;20.004;2024-01-15T03:34:47;96339.80;;;0.36;70.86
56568;BME280;42456;49.956;20.004;2024-01-15T03:37:14;96336.35;;;0.34;71.11
56568;BME280;42456;49.956;20.004;2024-01-15T03:39:41;96340.42;;;0.34;70.89
56568;BME280;42456;49.956;20.004;2024-01-15T03:42:08;96336.54;;;0.34;71.18
56568;BME280;42456;49.956;20.004;2024-01-15T03:44:35;96334.29;;;0.32;70.95
56568;BME280;42456;49.956;20.004;2024-01-15T03:47:02;96326.20;;;0.32;71.01
56568;BME280;42456;49.956;20.004;2024-01-15T03:49:30;96320.36;;;0.31;70.81
56568;BME280;42456;49.956;20.004;2024-01-15T03:51:57;96314.73;;;0.31;70.98
56568;BME280;42456;49.956;20.004;2024-01-15T03:54:24;96312.73;;;0.30;70.86
56568;BME280;42456;49.956;20.004;2024-01-15T03:56:51;96304.59;;;0.29;70.79
56568;BME280;42456;49.956;20.004;2024-01-15T03:59:18;96306.58;;;0.28;70.63
56568;BME280;42456;49.956;20.004;2024-01-15T04:01:49;96299.55;;;0.26;71.39
56568;BME280;42456;49.956;20.004;2024-01-15T04:04:18;96299.45;;;0.25;70.68
56568;BME280;42456;49.956;20.004;2024-01-15T04:06:45;96295.51;;;0.25;70.98
56568;BME280;42456;49.956;20.004;2024-01-15T04:09:13;96296.93;;;0.25;70.69
56568;BME280;42456;49.956;20.004;2024-01-15T04:11:40;96290.55;;;0.24;70.49
56568;BME280;42456;49.956;20.004;2024-01-15T04:14:07;96289.34;;;0.24;70.50
56568;BME280;42456;49.956;20.004;2024-01-15T04:16:34;96285.24;;;0.23;70.60
56568;BME280;42456;49.956;20.004;2024-01-15T04:19:01;96276.98;;;0.23;70.59
56568;BME280;42456;49.956;20.004;2024-01-15T04:21:28;96274.20;;;0.23;70.75
56568;BME280;42456;49.956;20.004;2024-01-15T04:23:55;96267.64;;;0.23;70.53
56568;BME280;42456;49.956;20.004;2024-01-15T04:26:22;96270.34;;;0.23;70.25
56568;BME280;42456;49.956;20.004;2024-01-15T04:28:48;96269.01;;;0.23;70.30
56568;BME280;42456;49.956;20.004;2024-01-15T04:31:23;96267.33;;;0.23;70.36
56568;BME280;42456;49.956;20.004;2024-01-15T04:33:51;96267.55;;;0.23;70.45
56568;BME280;42456;49.956;20.004;2024-01-15T04:36:18;96266.46;;;0.22;70.54
56568;BME280;42456;49.956;20.004;2024-01-15T04:38:45;96261.36;;;0.21;70.10
56568;BME280;42456;49.956;20.004;2024-01-15T04:41:13;96260.98;;;0.20;70.27
56568;BME280;42456;49.956;20.004;2024-01-15T04:43:40;96260.67;;;0.20;70.22
56568;BME280;42456;49.956;20.004;2024-01-15T04:46:07;96261.70;;;0.19;70.03
56568;BME280;42456;49.956;20.004;2024-01-15T04:48:34;96259.67;;;0.19;70.18
56568;BME280;42456;49.956;20.004;2024-01-15T04:51:04;96258.87;;;0.20;70.21
56568;BME280;42456;49.956;20.004;2024-01-15T04:53:34;96256.48;;;0.20;69.98
56568;BME280;42456;49.956;20.004;2024-01-15T04:56:01;96253.17;;;0.21;70.28
56568;BME280;42456;49.956;20.004;2024-01-15T04:58:28;96256.65;;;0.21;70.25
56568;BME280;42456;49.956;20.004;2024-01-15T05:01:16;96255.52;;;0.20;70.53
56568;BME280;42456;49.956;20.004;2024-01-15T05:03:45;96255.88;;;0.20;70.11
56568;BME280;42456;49.956;20.004;2024-01-15T05:06:12;96252.95;;;0.21;70.17
56568;BME280;42456;49.956;20.004;2024-01-15T05:08:39;96251.03;;;0.22;70.19
56568;BME280;42456;49.956;20.004;2024-01-15T05:11:06;96251.29;;;0.22;70.15
56568;BME280;42456;49.956;20.004;2024-01-15T05:13:33;96251.58;;;0.23;70.01
56568;BME280;42456;49.956;20.004;2024-01-15T05:16:00;96250.08;;;0.22;70.03
56568;BME280;42456;49.956;20.004;2024-01-15T05:18:27;96252.28;;;0.22;69.83
56568;BME280;42456;49.956;20.004;2024-01-15T05:20:54;96247.83;;;0.23;69.98
56568;BME280;42456;49.956;20.004;2024-01-15T05:23:21;96246.17;;;0.23;69.98
56568;BME280;42456;49.956;20.004;2024-01-15T05:25:48;96248.88;;;0.23;69.86
56568;BME280;42456;49.956;20.004;2024-01-15T05:28:15;96243.54;;;0.23;69.85
56568;BME280;42456;49.956;20.004;2024-01-15T05:30:42;96241.05;;;0.23;69.82
56568;BME280;42456;49.956;20.004;2024-01-15T05:33:09;96239.50;;;0.24;70.25
56568;BME280;42456;49.956;20.004;2024-01-15T05:35:36;96239.67;;;0.25;70.00
56568;BME280;42456;49.956;20.004;2024-01-15T05:38:03;96243.32;;;0.25;70.14
56568;BME280;42456;49.956;20.004;2024-01-15T05:40:30;96240.71;;;0.26;69.80
56568;BME280;42456;49.956;20.004;2024-01-15T05:42:56;96234.20;;;0.26;70.18
56568;BME280;42456;49.956;20.004;2024-01-15T05:45:23;96232.88;;;0.26;70.25
56568;BME280;42456;49.956;20.004;2024-01-15T05:47:50;96234.20;;;0.27;70.39
56568;BME280;42456;49.956;20.004;2024-01-15T05:50:17;96235.67;;;0.28;69.96
56568;BME280;42456;49.956;20.004;2024-01-15T05:52:45;96233.00;;;0.29;70.34
56568;BME280;42456;49.956;20.004;2024-01-15T05:55:12;96229.94;;;0.30;69.94
56568;BME280;42456;49.956;20.004;2024-01-15T05:57:39;96223.89;;;0.31;69.91
56568;BME280;42456;49.956;20.004;2024-01-15T06:00:06;96225.00;;;0.32;70.06
56568;BME280;42456;49.956;20.004;2024-01-15T06:02:37;96228.48;;;0.33;70.31
56568;BME280;42456;49.956;20.004;2024-01-15T06:05:06;96217.20;;;0.32;70.34
56568;BME280;42456;49.956;20.004;2024-01-15T06:07:34;96215.33;;;0.32;70.60
56568;BME280;42456;49.956;20.004;2024-01-15T06:10:03;96213.61;;;0.33;70.28
56568;BME280;42456;49.956;20.004;2024-01-15T06:12:31;96218.04;;;0.34;70.50
56568;BME280;42456;49.956;20.004;2024-01-15T06:14:59;96228.25;;;0.35;70.62
56568;BME280;42456;49.956;20.004;2024-01-15T06:17:26;96237.65;;;0.35;70.43
56568;BME280;42456;49.956;20.004;2024-01-15T06:19:53;96242.51;;;0.36;70.87
56568;BME280;42456;49.956;20.004;2024-01-15T06:22:20;96237.09;;;0.36;70.58
56568;BME280;42456;49.956;20.004;2024-01-15T06:24:47;96235.54;;;0.37;70.68
56568;BME280;42456;49.956;20.004;2024-01-15T06:27:14;96238.02;;;0.39;70.80
56568;BME280;42456;49.956;20.004;2024-01-15T06:29:45;96231.59;;;0.40;70.81
56568;BME280;42456;49.956;20.004;2024-01-15T06:32:17;96234.98;;;0.41;70.61
56568;BME280;42456;49.956;20.004;2024-01-15T06:34:44;96240.95;;;0.43;70.92
56568;BME280;42456;49.956;20.004;2024-01-15T06:37:11;96239.47;;;0.44;70.91
56568;BME280;42456;49.956;20.004;2024-01-15T06:39:38;96240.38;;;0.46;70.57
56568;BME280;42456;49.956;20.004;2024-01-15T06:42:05;96239.98;;;0.47;70.90
56568;BME280;42456;49.956;20.004;2024-01-15T06:44:32;96239.70;;;0.47;70.57
56568;BME280;42456;49.956;20.004;2024-01-15T06:46:59;96237.91;;;0.48;70.68
56568;BME280;42456;49.956;20.004;2024-01-15T06:49:29;96240.77;;;0.49;70.83
56568;BME280;42456;49.956;20.004;2024-01-15T06:51:56;96231.86;;;0.49;70.67
56568;BME280;42456;49.956;20.004;2024-01-15T06:54:24;96233.16;;;0.50;70.25
56568;BME280;42456;49.956;20.004;2024-01-15T06:56:52;96230.14;;;0.50;70.83
56568;BME280;42456;49.956;20.004;2024-01-15T06:59:19;96228.13;;;0.51;70.68
56568;BME280;42456;49.956;20.004;2024-01-15T07:01:46;96227.02;;;0.51;70.55
56568;BME280;42456;49.956;20.004;2024-01-15T07:04:13;96232.07;;;0.53;70.40
56568;BME280;42456;49.956;20.004;2024-01-15T07:06:40;96234.99;;;0.54;70.65
56568;BME280;42456;49.956;20.004;2024-01-15T07:09:07;96237.38;;;0.55;70.60
56568;BME280;42456;49.956;20.004;2024-01-15T07:11:35;96246.21;;;0.57;70.70
56568;BME280;42456;49.956;20.004;2024-01-15T07:14:02;96247.55;;;0.58;70.55
56568;BME280;42456;49.956;20.004;2024-01-15T07:16:29;96247.39;;;0.60;70.68
56568;BME280;42456;49.956;20.004;2024-01-15T07:19:04;96247.42;;;0.60;70.73
56568;BME280;42456;49.956;20.004;2024-01-15T07:21:32;96240.52;;;0.61;70.64
56568;BME280;42456;49.956;20.004;2024-01-15T07:23:59;96246.18;;;0.63;70.47
56568;BME280;42456;49.956;20.004;2024-01-15T07:26:26;96250.34;;;0.65;70.83
56568;BME280;42456;49.956;20.004;2024-01-15T07:28:52;96248.53;;;0.67;69.93
56568;BME280;42456;49.956;20.004;2024-01-15T07:31:19;96246.66;;;0.69;70.78
56568;BME280;42456;49.956;20.004;2024-01-15T07:33:47;96245.39;;;0.71;70.90
56568;BME280;42456;49.956;20.004;2024-01-15T07:36:14;96242.02;;;0.73;70.47
56568;BME280;42456;49.956;20.004;2024-01-15T07:38:41;96248.27;;;0.77;70.74
56568;BME280;42456;49.956;20.004;2024-01-15T07:41:09;96251.84;;;0.79;70.08
56568;BME280;42456;49.956;20.004;2024-01-15T07:43:38;96258.24;;;0.80;70.68
56568;BME280;42456;49.956;20.004;2024-01-15T07:46:06;96261.08;;;0.83;70.47
56568;BME280;42456;49.956;20.004;2024-01-15T07:48:34;96265.62;;;0.83;70.49
56568;BME280;42456;49.956;20.004;2024-01-15T07:51:01;96277.81;;;0.87;70.48
56568;BME280;42456;49.956;20.004;2024-01-15T07:53:28;96279.90;;;0.90;70.06
56568;BME280;42456;49.956;20.004;2024-01-15T07:55:55;96278.34;;;0.92;69.96
56568;BME280;42456;49.956;20.004;2024-01-15T07:58:22;96277.93;;;0.95;70.17
56568;BME280;42456;49.956;20.004;2024-01-15T08:00:49;96281.41;;;0.97;70.32
56568;BME280;42456;49.956;20.004;2024-01-15T08:03:16;96286.05;;;0.97;70.02
56568;BME280;42456;49.956;20.004;2024-01-15T08:05:43;96281.42;;;0.99;70.51
56568;BME280;42456;49.956;20.004;2024-01-15T08:08:11;96282.39;;;1.00;70.02
56568;BME280;42456;49.956;20.004;2024-01-15T08:10:38;96278.93;;;1.01;69.89
56568;BME280;42456;49.956;20.004;2024-01-15T08:13:05;96282.22;;;1.04;69.89
56568;BME280;42456;49.956;20.004;2024-01-15T08:15:34;96285.30;;;1.05;69.54
56568;BME280;42456;49.956;20.004;2024-01-15T08:18:01;96284.25;;;1.07;69.78
56568;BME280;42456;49.956;20.004;2024-01-15T08:20:28;96286.55;;;1.08;69.53
56568;BME280;42456;49.956;20.004;2024-01-15T08:22:56;96289.19;;;1.11;69.63
56568;BME280;42456;49.956;20.004;2024-01-15T08:25:22;96292.68;;;1.15;70.00
56568;BME280;42456;49.956;20.004;2024-01-15T08:27:50;96296.36;;;1.18;70.11
56568;BME280;42456;49.956;20.004;2024-01-15T08:30:17;96299.35;;;1.19;70.56
56568;BME280;42456;49.956;20.004;2024-01-15T08:32:46;96306.75;;;1.20;70.40
56568;BME280;42456;49.956;20.004;2024-01-15T08:35:13;96310.02;;;1.21;70.69
56568;BME280;42456;49.956;20.004;2024-01-15T08:37:40;96311.81;;;1.22;70.81
56568;BME280;42456;49.956;20.004;2024-01-15T08:40:08;96314.40;;;1.24;71.58
56568;BME280;42456;49.956;20.004;2024-01-15T08:42:35;96313.71;;;1.25;72.19
56568;BME280;42456;49.956;20.004;2024-01-15T08:45:02;96310.48;;;1.25;71.88
56568;BME280;42456;49.956;20.004;2024-01-15T08:47:29;96311.44;;;1.28;71.74
56568;BME280;42456;49.956;20.004;2024-01-15T08:49:56;96302.27;;;1.31;71.89
56568;BME280;42456;49.956;20.004;2024-01-15T08:52:23;96297.89;;;1.35;71.98
56568;BME280;42456;49.956;20.004;2024-01-15T08:54:50;96302.60;;;1.41;72.72
56568;BME280;42456;49.956;20.004;2024-01-15T08:57:17;96300.28;;;1.47;72.82
56568;BME280;42456;49.956;20.004;2024-01-15T08:59:44;96302.55;;;1.53;72.18
56568;BME280;42456;49.956;20.004;2024-01-15T09:02:11;96305.41;;;1.58;71.92
56568;BME280;42456;49.956;20.004;2024-01-15T09:04:39;96303.88;;;1.63;71.77
56568;BME280;42456;49.956;20.004;2024-01-15T09:07:07;96299.67;;;1.70;71.15
56568;BME280;42456;49.956;20.004;2024-01-15T09:09:34;96302.23;;;1.77;71.10
56568;BME280;42456;49.956;20.004;2024-01-15T09:12:02;96298.71;;;1.80;70.77
56568;BME280;42456;49.956;20.004;2024-01-15T09:14:29;96300.98;;;1.84;70.44
56568;BME280;42456;49.956;20.004;2024-01-15T09:17:04;96304.17;;;1.90;70.58
56568;BME280;42456;49.956;20.004;2024-01-15T09:19:32;96306.08;;;1.98;70.10
56568;BME280;42456;49.956;20.004;2024-01-15T09:21:59;96310.34;;;2.09;70.19
56568;BME280;42456;49.956;20.004;2024-01-15T09:24:26;96312.16;;;2.19;70.57
56568;BME280;42456;49.956;20.004;2024-01-15T09:26:55;96309.52;;;2.25;70.08
56568;BME280;42456;49.956;20.004;2024-01-15T09:29:22;96304.83;;;2.29;70.01
56568;BME280;42456;49.956;20.004;2024-01-15T09:31:51;96307.44;;;2.32;68.97
56568;BME280;42456;49.956;20.004;2024-01-15T09:34:19;96311.89;;;2.34;68.93
56568;BME280;42456;49.956;20.004;2024-01-15T09:36:46;96312.17;;;2.33;69.05
56568;BME280;42456;49.956;20.004;2024-01-15T09:39:14;96321.35;;;2.34;68.73
56568;BME280;42456;49.956;20.004;2024-01-15T09:41:43;96325.86;;;2.26;68.91
56568;BME280;42456;49.956;20.004;2024-01-15T09:44:10;96320.58;;;2.21;70.06
56568;BME280;42456;49.956;20.004;2024-01-15T09:46:39;96318.49;;;2.22;69.98
56568;BME280;42456;49.956;20.004;2024-01-15T09:49:08;96313.98;;;2.25;70.16
56568;BME280;42456;49.956;20.004;2024-01-15T09:51:36;96311.81;;;2.32;70.44
56568;BME280;42456;49.956;20.004;2024-01-15T09:54:04;96314.78;;;2.36;70.54
56568;BME280;42456;49.956;20.004;2024-01-15T09:56:31;96318.80;;;2.36;70.23
56568;BME280;42456;49.956;20.004;2024-01-15T09:59:00;96332.98;;;2.35;70.07
56568;BME280;42456;49.956;20.004;2024-01-15T10:01:27;96336.57;;;2.35;70.71
56568;BME280;42456;49.956;20.004;2024-01-15T10:03:55;96330.45;;;2.32;70.41
56568;BME280;42456;49.956;20.004;2024-01-15T10:06:22;96330.27;;;2.25;70.74
56568;BME280;42456;49.956;20.004;2024-01-15T10:08:51;96326.74;;;2.20;71.23
56568;BME280;42456;49.956;20.004;2024-01-15T10:11:17;96319.60;;;2.15;70.98
56568;BME280;42456;49.956;20.004;2024-01-15T10:13:45;96316.48;;;2.11;70.81
56568;BME280;42456;49.956;20.004;2024-01-15T10:16:15;96315.20;;;2.11;70.96
56568;BME280;42456;49.956;20.004;2024-01-15T10:18:43;96317.94;;;2.12;71.41
56568;BME280;42456;49.956;20.004;2024-01-15T10:21:10;96319.41;;;2.10;70.95
56568;BME280;42456;49.956;20.004;2024-01-15T10:23:37;96321.64;;;2.11;71.05
56568;BME280;42456;49.956;20.004;2024-01-15T10:26:04;96319.34;;;2.15;71.12
56568;BME280;42456;49.956;20.004;2024-01-15T10:28:31;96318.84;;;2.17;70.52
56568;BME280;42456;49.956;20.004;2024-01-15T10:30:59;96313.77;;;2.19;71.36
56568;BME280;42456;49.956;20.004;2024-01-15T10:33:27;96314.66;;;2.17;70.96
56568;BME280;42456;49.956;20.004;2024-01-15T10:35:56;96307.80;;;2.16;71.08
56568;BME280;42456;49.956;20.004;2024-01-15T10:38:24;96309.52;;;2.15;70.71
56568;BME280;42456;49.956;20.004;2024-01-15T10:40:53;96307.93;;;2.15;70.98
56568;BME280;42456;49.956;20.004;2024-01-15T10:43:21;96304.83;;;2.13;70.91
56568;BME280;42456;49.956;20.004;2024-01-15T10:45:51;96303.40;;;2.12;70.78
56568;BME280;42456;49.956;20.004;2024-01-15T10:48:19;96304.21;;;2.11;70.44
56568;BME280;42456;49.956;20.004;2024-01-15T10:50:47;96300.91;;;2.14;70.46
56568;BME280;42456;49.956;20.004;2024-01-15T10:53:15;96300.21;;;2.18;70.42
56568;BME280;42456;49.956;20.004;2024-01-15T10:55:44;96296.84;;;2.18;70.11
56568;BME280;42456;49.956;20.004;2024-01-15T10:58:14;96297.30;;;2.19;70.04
56568;BME280;42456;49.956;20.004;2024-01-15T11:00:41;96299.55;;;2.18;69.69
56568;BME280;42456;49.956;20.004;2024-01-15T11:03:09;96302.09;;;2.17;69.74
56568;BME280;42456;49.956;20.004;2024-01-15T11:05:42;96300.66;;;2.19;69.95
56568;BME280;42456;49.956;20.004;2024-01-15T11:08:09;96299.13;;;2.25;69.67
56568;BME280;42456;49.956;20.004;2024-01-15T11:10:48;96290.77;;;2.33;69.68
56568;BME280;42456;49.956;20.004;2024-01-15T11:13:40;96288.65;;;2.41;69.70
56568;BME280;42456;49.956;20.004;2024-01-15T11:16:09;96285.48;;;2.47;69.18
56568;BME280;42456;49.956;20.004;2024-01-15T11:18:40;96288.45;;;2.50;68.66
56568;BME280;42456;49.956;20.004;2024-01-15T11:23:49;96292.73;;;2.55;68.57
56568;BME280;42456;49.956;20.004;2024-01-15T11:29:05;96290.27;;;2.56;67.90
56568;BME280;42456;49.956;20.004;2024-01-15T11:34:07;96293.59;;;2.51;66.92
56568;BME280;42456;49.956;20.004;2024-01-15T11:42:03;96292.36;;;2.30;65.54
56568;BME280;42456;49.956;20.004;2024-01-15T11:44:30;96293.23;;;2.21;65.09
56568;BME280;42456;49.956;20.004;2024-01-15T11:46:59;96283.18;;;2.14;64.76
56568;BME280;42456;49.956;20.004;2024-01-15T11:52:11;96294.09;;;2.06;63.99
56568;BME280;42456;49.956;20.004;2024-01-15T11:54:38;96285.46;;;2.00;63.30
56568;BME280;42456;49.956;20.004;2024-01-15T11:57:12;96288.45;;;1.97;63.94
56568;BME280;42456;49.956;20.004;2024-01-15T11:59:42;96294.34;;;2.03;63.90
56568;BME280;42456;49.956;20.004;2024-01-15T12:02:09;96297.04;;;2.08;63.74
56568;BME280;42456;49.956;20.004;2024-01-15T12:04:40;96291.30;;;2.15;63.36
56568;BME280;42456;49.956;20.004;2024-01-15T12:07:07;96291.61;;;2.20;63.48
56568;BME280;42456;49.956;20.004;2024-01-15T12:09:34;96292.49;;;2.24;63.35
56568;BME280;42456;49.956;20.004;2024-01-15T12:12:07;96295.79;;;2.29;63.28
56568;BME280;42456;49.956;20.004;2024-01-15T12:14:39;96297.67;;;2.33;63.06
56568;BME280;42456;49.956;20.004;2024-01-15T12:17:05;96296.78;;;2.35;63.13
56568;BME280;42456;49.956;20.004;2024-01-15T12:19:32;96293.99;;;2.36;62.77
56568;BME280;42456;49.956;20.004;2024-01-15T12:22:01;96289.24;;;2.36;62.48
56568;BME280;42456;49.956;20.004;2024-01-15T12:24:28;96293.04;;;2.39;62.71
56568;BME280;42456;49.956;20.004;2024-01-15T12:26:54;96290.09;;;2.43;62.68
56568;BME280;42456;49.956;20.004;2024-01-15T12:29:21;96286.84;;;2.43;62.61
56568;BME280;42456;49.956;20.004;2024-01-15T12:31:48;96282.01;;;2.44;61.91
56568;BME280;42456;49.956;20.004;2024-01-15T12:34:17;96282.98;;;2.47;62.10
56568;BME280;42456;49.956;20.004;2024-01-15T12:36:46;96281.38;;;2.53;61.91
56568;BME280;42456;49.956;20.004;2024-01-15T12:39:27;96288.96;;;2.60;61.60
56568;BME280;42456;49.956;20.004;2024-01-15T12:41:55;96289.92;;;2.63;61.16
56568;BME280;42456;49.956;20.004;2024-01-15T12:44:22;96282.77;;;2.60;60.49
56568;BME280;42456;49.956;20.004;2024-01-15T12:46:49;96289.20;;;2.56;60.94
56568;BME280;42456;49.956;20.004;2024-01-15T12:49:17;96294.05;;;2.53;60.70
56568;BME280;42456;49.956;20.004;2024-01-15T12:51:52;96293.80;;;2.53;60.62
56568;BME280;42456;49.956;20.004;2024-01-15T12:54:20;96293.45;;;2.50;60.72
56568;BME280;42456;49.956;20.004;2024-01-15T12:56:48;96291.33;;;2.50;60.70
56568;BME280;42456;49.956;20.004;2024-01-15T12:59:15;96288.70;;;2.48;60.18
56568;BME280;42456;49.956;20.004;2024-01-15T13:01:43;96284.28;;;2.46;60.65
56568;BME280;42456;49.956;20.004;2024-01-15T13:04:10;96288.64;;;2.47;60.60
56568;BME280;42456;49.956;20.004;2024-01-15T13:06:37;96294.31;;;2.51;60.57
56568;BME280;42456;49.956;20.004;2024-01-15T13:09:04;96293.20;;;2.57;60.52
56568;BME280;42456;49.956;20.004;2024-01-15T13:11:36;96290.11;;;2.64;60.35
56568;BME280;42456;49.956;20.004;2024-01-15T13:14:03;96286.38;;;2.72;60.37
56568;BME280;42456;49.956;20.004;2024-01-15T13:16:31;96282.70;;;2.78;60.43
56568;BME280;42456;49.956;20.004;2024-01-15T13:18:58;96285.31;;;2.83;60.14